Milton, Florida
Current Conditions -  °F | °C
As of 2:56 PM on Thursday 23 Oct 2014 (Local Time) from KNDZ Reporting Station
Few Clouds Few Clouds  
Wind Chill: 77°   Ceiling: Unl
Heat Index: 78°   Visibility: 10mi
Dew Point: 43°   Wind: 6mph
Humidity: 30%   Direction: 70°ENE
Pressure: 30.02"   Gusts: NA
Location:  30.63°N, 87.04°W
Report Text: KNDZ 231956Z 07005KT 10SM FEW010 FEW250 25/06 A3002 RMK AO2 SLP153 FU FEW010 FU N-E T02500061 $
Loading
Personal Weather Stations






























Interactive Weather Map New forecast layout! Learn more

10-Day Weather Forecast

Advertisements
Track Severe Weather on mobile